^^
Meteo Knjazevac Station Historical Data
Daily Summary for February 14, 2021 Units:  Metric    English   Both
Daily Weekly Monthly Yearly Custom
  High: Low: Average:
Temperature: 3.6 °C 0.6 °C 1.8 °C
Dew Point: 2.3 °C 0.3 °C 1.1 °C
Humidity: 99% 89% 95%
Wind Speed: 12.9km/h 0km/h 4km/h
Wind Gust: 19.3km/h - -
Wind- - SW
Pressure: 1024.3 hPa 1021.6 hPa -
Precipitation: 0 mm    
Historical Graphs
 
 
Tabular Data for February 14, 2021
Time Temperature Dew Point Pressure Wind Wind Speed Wind Gust Humidity Rainfall Rate (Hourly) solar Conditions
00:00 0.6 °C 0.5 °C 1021.9 hPa WSW 1.6 km/h 4.8 km/h 99% 0 mm 0 W/m2
00:10 0.6 °C 0.4 °C 1021.9 hPa Calm   6.4 km/h 99% 0 mm 0 W/m2
00:20 0.7 °C 0.6 °C 1021.9 hPa SSW 3.2 km/h 4.8 km/h 99% 0 mm 0 W/m2
00:30 0.7 °C 0.6 °C 1021.9 hPa Calm   3.2 km/h 99% 0 mm 0 W/m2
00:40 0.7 °C 0.6 °C 1021.9 hPa North 1.6 km/h 4.8 km/h 99% 0 mm 0 W/m2
00:50 0.7 °C 0.6 °C 1021.6 hPa NW 1.6 km/h 3.2 km/h 99% 0 mm 0 W/m2
01:00 0.7 °C 0.6 °C 1021.6 hPa South 1.6 km/h 8 km/h 99% 0 mm 0 W/m2
01:10 0.8 °C 0.7 °C 1021.6 hPa ESE 4.8 km/h 11.3 km/h 99% 0 mm 0 W/m2
01:20 0.8 °C 0.7 °C 1021.9 hPa SSE 1.6 km/h 8 km/h 99% 0 mm 0 W/m2
01:30 0.8 °C 0.7 °C 1021.9 hPa SSW 1.6 km/h 4.8 km/h 99% 0 mm 0 W/m2
01:40 0.8 °C 0.7 °C 1021.9 hPa SSE 3.2 km/h 8 km/h 99% 0 mm 0 W/m2
01:50 0.9 °C 0.8 °C 1022.2 hPa NE 1.6 km/h 6.4 km/h 99% 0 mm 0 W/m2
02:00 0.9 °C 0.8 °C 1021.9 hPa Calm   4.8 km/h 99% 0 mm 0 W/m2
02:10 0.9 °C 0.8 °C 1021.9 hPa Calm   4.8 km/h 99% 0 mm 0 W/m2
02:20 0.9 °C 0.8 °C 1021.9 hPa South 1.6 km/h 6.4 km/h 99% 0 mm 0 W/m2
02:30 0.9 °C 0.6 °C 1021.9 hPa Calm   3.2 km/h 98% 0 mm 0 W/m2
02:40 0.9 °C 0.6 °C 1021.9 hPa Calm   3.2 km/h 98% 0 mm 0 W/m2
02:50 0.9 °C 0.6 °C 1021.9 hPa ENE 1.6 km/h 3.2 km/h 98% 0 mm 0 W/m2
03:00 1 °C 0.7 °C 1021.9 hPa Calm   3.2 km/h 98% 0 mm 0 W/m2
03:10 1 °C 0.7 °C 1022.2 hPa West 3.2 km/h 4.8 km/h 98% 0 mm 0 W/m2
03:20 1 °C 0.7 °C 1021.9 hPa WSW 3.2 km/h 8 km/h 98% 0 mm 0 W/m2
03:30 1 °C 0.7 °C 1022.2 hPa WSW 4.8 km/h 8 km/h 98% 0 mm 0 W/m2
03:40 1.1 °C 0.8 °C 1022.2 hPa SSW 3.2 km/h 8 km/h 98% 0 mm 0 W/m2
03:50 1.1 °C 0.8 °C 1022.2 hPa SW 1.6 km/h 4.8 km/h 98% 0 mm 0 W/m2
04:00 1.1 °C 0.8 °C 1022.2 hPa South 1.6 km/h 6.4 km/h 98% 0 mm 0 W/m2
04:10 1.1 °C 0.8 °C 1022.2 hPa SE 3.2 km/h 6.4 km/h 98% 0 mm 0 W/m2
04:20 1 °C 0.8 °C 1022.2 hPa SSW 1.6 km/h 4.8 km/h 99% 0 mm 0 W/m2
04:30 1 °C 0.8 °C 1022.2 hPa Calm   3.2 km/h 99% 0 mm 0 W/m2
04:40 0.9 °C 0.8 °C 1022.2 hPa West 3.2 km/h 4.8 km/h 99% 0 mm 0 W/m2
04:50 0.9 °C 0.8 °C 1022.2 hPa WSW 1.6 km/h 4.8 km/h 99% 0 mm 0 W/m2
05:00 0.9 °C 0.8 °C 1022.2 hPa Calm   4.8 km/h 99% 0 mm 0 W/m2
05:10 0.9 °C 0.8 °C 1022.2 hPa Calm   3.2 km/h 99% 0 mm 0 W/m2
05:20 0.9 °C 0.8 °C 1022.2 hPa Calm   3.2 km/h 99% 0 mm 0 W/m2
05:30 0.9 °C 0.8 °C 1022.2 hPa WSW 1.6 km/h 3.2 km/h 99% 0 mm 0 W/m2
05:40 0.9 °C 0.8 °C 1022.2 hPa SSE 1.6 km/h 8 km/h 99% 0 mm 0 W/m2
05:50 0.9 °C 0.7 °C 1022.2 hPa SE 1.6 km/h 8 km/h 99% 0 mm 0 W/m2
06:00 0.9 °C 0.8 °C 1022.2 hPa NE 3.2 km/h 4.8 km/h 99% 0 mm 0 W/m2
06:10 0.9 °C 0.8 °C 1022.2 hPa East 1.6 km/h 6.4 km/h 99% 0 mm 0 W/m2
06:20 0.9 °C 0.8 °C 1022.2 hPa NW 1.6 km/h 6.4 km/h 99% 0 mm 0 W/m2
06:30 0.9 °C 0.8 °C 1022.2 hPa East 1.6 km/h 8 km/h 99% 0 mm 0 W/m2
06:40 0.9 °C 0.8 °C 1022.6 hPa Calm   3.2 km/h 99% 0 mm 0 W/m2
06:50 1 °C 0.8 °C 1022.6 hPa Calm   4.8 km/h 99% 0 mm 0 W/m2
07:00 1 °C 0.8 °C 1022.6 hPa Calm   3.2 km/h 99% 0 mm 1 W/m2
07:10 1 °C 0.8 °C 1022.6 hPa Calm   3.2 km/h 99% 0 mm 2 W/m2
07:20 1 °C 0.8 °C 1022.6 hPa North 1.6 km/h 3.2 km/h 99% 0 mm 4 W/m2
07:30 1 °C 0.8 °C 1022.6 hPa Calm   1.6 km/h 99% 0 mm 7 W/m2
07:40 1.1 °C 0.9 °C 1022.9 hPa ESE 1.6 km/h 3.2 km/h 99% 0 mm 9 W/m2
07:50 1.1 °C 0.9 °C 1022.9 hPa ESE 3.2 km/h 4.8 km/h 99% 0 mm 14 W/m2
08:00 1.1 °C 0.9 °C 1022.9 hPa SE 1.6 km/h 3.2 km/h 99% 0 mm 20 W/m2
08:10 1.2 °C 1.1 °C 1022.9 hPa SE 1.6 km/h 3.2 km/h 99% 0 mm 28 W/m2
08:20 1.2 °C 1.1 °C 1022.9 hPa Calm   3.2 km/h 99% 0 mm 38 W/m2
08:30 1.3 °C 1.2 °C 1022.9 hPa Calm   3.2 km/h 99% 0 mm 48 W/m2
08:40 1.4 °C 1.3 °C 1022.9 hPa Calm     99% 0 mm 64 W/m2
08:50 1.5 °C 1.3 °C 1022.9 hPa NE 1.6 km/h 3.2 km/h 99% 0 mm 94 W/m2
09:00 1.7 °C 1.4 °C 1023.2 hPa NE 1.6 km/h 4.8 km/h 98% 0 mm 98 W/m2
09:10 1.9 °C 1.6 °C 1023.2 hPa SSW 1.6 km/h 4.8 km/h 98% 0 mm 134 W/m2
09:20 2.1 °C 1.8 °C 1023.2 hPa WSW 1.6 km/h 6.4 km/h 98% 0 mm 125 W/m2
09:30 2.3 °C 1.7 °C 1023.2 hPa South 3.2 km/h 8 km/h 96% 0 mm 116 W/m2
09:40 2.4 °C 1.8 °C 1023.2 hPa South 1.6 km/h 9.7 km/h 96% 0 mm 109 W/m2
09:50 2.5 °C 1.8 °C 1023.2 hPa SW 3.2 km/h 9.7 km/h 95% 0 mm 65 W/m2
10:00 2.6 °C 1.7 °C 1023.2 hPa WSW 3.2 km/h 9.7 km/h 94% 0 mm 52 W/m2
10:10 2.6 °C 1.7 °C 1023.2 hPa WSW 3.2 km/h 9.7 km/h 94% 0 mm 53 W/m2
10:20 2.6 °C 1.7 °C 1023.2 hPa WSW 4.8 km/h 11.3 km/h 94% 0 mm 62 W/m2
10:30 2.7 °C 1.8 °C 1023.2 hPa WSW 4.8 km/h 11.3 km/h 94% 0 mm 60 W/m2
10:40 2.7 °C 1.8 °C 1022.9 hPa WSW 4.8 km/h 11.3 km/h 94% 0 mm 70 W/m2
10:50 2.7 °C 1.8 °C 1022.9 hPa WSW 8 km/h 9.7 km/h 94% 0 mm 69 W/m2
11:00 2.7 °C 1.9 °C 1022.9 hPa SW 4.8 km/h 11.3 km/h 94% 0 mm 77 W/m2
11:10 2.8 °C 1.8 °C 1022.6 hPa WSW 8 km/h 9.7 km/h 93% 0 mm 99 W/m2
11:20 2.9 °C 2.1 °C 1022.6 hPa SW 4.8 km/h 9.7 km/h 94% 0 mm 106 W/m2
11:30 3 °C 2 °C 1022.6 hPa SW 3.2 km/h 8 km/h 93% 0 mm 156 W/m2
11:40 3.2 °C 2.2 °C 1022.6 hPa SW 8 km/h 11.3 km/h 93% 0 mm 181 W/m2
11:50 3.4 °C 2.1 °C 1022.6 hPa Calm   8 km/h 91% 0 mm 145 W/m2
12:00 3.5 °C 2.2 °C 1022.6 hPa SW 4.8 km/h 8 km/h 91% 0 mm 111 W/m2
12:10 3.6 °C 2.3 °C 1022.2 hPa WSW 3.2 km/h 8 km/h 91% 0 mm 76 W/m2
12:20 3.5 °C 2 °C 1022.2 hPa SW 4.8 km/h 9.7 km/h 90% 0 mm 76 W/m2
12:30 3.5 °C 2 °C 1022.6 hPa WSW 3.2 km/h 8 km/h 90% 0 mm 85 W/m2
12:40 3.6 °C 2.1 °C 1022.2 hPa WSW 3.2 km/h 9.7 km/h 90% 0 mm 120 W/m2
12:50 3.6 °C 2.1 °C 1022.2 hPa WSW 4.8 km/h 11.3 km/h 90% 0 mm 84 W/m2
13:00 3.6 °C 2.1 °C 1022.2 hPa SW 4.8 km/h 11.3 km/h 90% 0 mm 71 W/m2
13:10 3.6 °C 2.1 °C 1022.2 hPa WSW 8 km/h 12.9 km/h 90% 0 mm 93 W/m2
13:20 3.6 °C 1.9 °C 1022.2 hPa WSW 8 km/h 16.1 km/h 89% 0 mm 102 W/m2
13:30 3.5 °C 1.8 °C 1022.2 hPa WSW 8 km/h 17.7 km/h 89% 0 mm 104 W/m2
13:40 3.5 °C 1.8 °C 1022.2 hPa West 9.7 km/h 16.1 km/h 89% 0 mm 99 W/m2
13:50 3.4 °C 1.8 °C 1022.2 hPa WSW 12.9 km/h 19.3 km/h 89% 0 mm 71 W/m2
14:00 3.3 °C 1.7 °C 1022.2 hPa WSW 12.9 km/h 19.3 km/h 89% 0 mm 47 W/m2
14:10 3.2 °C 1.6 °C 1022.2 hPa WSW 9.7 km/h 19.3 km/h 89% 0 mm 54 W/m2
14:20 3.1 °C 1.4 °C 1022.2 hPa WSW 9.7 km/h 14.5 km/h 89% 0 mm 50 W/m2
14:30 3.1 °C 1.4 °C 1022.2 hPa WSW 8 km/h 14.5 km/h 89% 0 mm 41 W/m2
14:40 3.1 °C 1.4 °C 1022.2 hPa WSW 8 km/h 12.9 km/h 89% 0 mm 31 W/m2
14:50 3 °C 1.4 °C 1022.6 hPa WSW 8 km/h 14.5 km/h 89% 0 mm 29 W/m2
15:00 3 °C 1.4 °C 1022.6 hPa WSW 8 km/h 16.1 km/h 89% 0 mm 24 W/m2
15:10 2.9 °C 1.3 °C 1022.6 hPa West 9.7 km/h 16.1 km/h 89% 0 mm 19 W/m2
15:20 2.9 °C 1.3 °C 1022.6 hPa West 9.7 km/h 16.1 km/h 89% 0 mm 13 W/m2
15:30 2.9 °C 1.4 °C 1022.6 hPa West 9.7 km/h 16.1 km/h 90% 0 mm 9 W/m2
15:40 2.9 °C 1.4 °C 1022.6 hPa WSW 4.8 km/h 11.3 km/h 90% 0 mm 6 W/m2
15:50 2.8 °C 1.3 °C 1022.6 hPa WSW 8 km/h 12.9 km/h 90% 0 mm 3 W/m2
16:00 2.7 °C 1.2 °C 1022.6 hPa WSW 4.8 km/h 12.9 km/h 90% 0 mm 0 W/m2
16:10 2.7 °C 1.2 °C 1022.6 hPa WSW 9.7 km/h 12.9 km/h 90% 0 mm 0 W/m2
16:20 2.6 °C 1.1 °C 1022.9 hPa WSW 8 km/h 12.9 km/h 90% 0 mm 0 W/m2
16:30 2.5 °C 1.2 °C 1022.9 hPa West 4.8 km/h 16.1 km/h 91% 0 mm 0 W/m2
16:40 2.5 °C 1.2 °C 1022.9 hPa WSW 4.8 km/h 11.3 km/h 91% 0 mm 0 W/m2
16:50 2.5 °C 1.2 °C 1022.9 hPa WSW 4.8 km/h 11.3 km/h 91% 0 mm 0 W/m2
17:00 2.4 °C 1.4 °C 1023.2 hPa WSW 4.8 km/h 11.3 km/h 93% 0 mm 0 W/m2
17:10 2.4 °C 1.4 °C 1023.2 hPa WSW 4.8 km/h 9.7 km/h 93% 0 mm 0 W/m2
17:20 2.4 °C 1.4 °C 1023.2 hPa West 3.2 km/h 6.4 km/h 93% 0 mm 0 W/m2
17:30 2.4 °C 1.4 °C 1023.2 hPa WSW 4.8 km/h 12.9 km/h 93% 0 mm 0 W/m2
17:40 2.3 °C 1 °C 1023.2 hPa WSW 9.7 km/h 16.1 km/h 91% 0 mm 0 W/m2
17:50 2.2 °C 0.9 °C 1023.2 hPa WSW 9.7 km/h 17.7 km/h 91% 0 mm 0 W/m2
18:00 2.1 °C 0.8 °C 1023.2 hPa WSW 11.3 km/h 16.1 km/h 91% 0 mm 0 W/m2
18:10 2.1 °C 0.8 °C 1023.6 hPa WSW 9.7 km/h 16.1 km/h 91% 0 mm 0 W/m2
18:20 2 °C 1 °C 1023.6 hPa WSW 8 km/h 17.7 km/h 93% 0 mm 0 W/m2
18:30 2 °C 1 °C 1023.6 hPa WSW 4.8 km/h 14.5 km/h 93% 0 mm 0 W/m2
18:40 2 °C 1 °C 1023.6 hPa West 4.8 km/h 11.3 km/h 93% 0 mm 0 W/m2
18:50 2 °C 1 °C 1023.6 hPa WSW 9.7 km/h 16.1 km/h 93% 0 mm 0 W/m2
19:00 1.9 °C 0.9 °C 1023.6 hPa WSW 4.8 km/h 16.1 km/h 93% 0 mm 0 W/m2
19:10 1.9 °C 0.9 °C 1023.6 hPa WSW 4.8 km/h 16.1 km/h 93% 0 mm 0 W/m2
19:20 1.9 °C 0.9 °C 1023.6 hPa WSW 4.8 km/h 11.3 km/h 93% 0 mm 0 W/m2
19:30 1.9 °C 0.9 °C 1023.6 hPa West 4.8 km/h 12.9 km/h 93% 0 mm 0 W/m2
19:40 1.9 °C 1.1 °C 1023.9 hPa WSW 3.2 km/h 8 km/h 94% 0 mm 0 W/m2
19:50 1.9 °C 1.1 °C 1023.6 hPa SW 1.6 km/h 4.8 km/h 94% 0 mm 0 W/m2
20:00 1.9 °C 1.1 °C 1023.6 hPa SW 3.2 km/h 4.8 km/h 94% 0 mm 0 W/m2
20:10 1.9 °C 1.1 °C 1023.9 hPa SW 3.2 km/h 8 km/h 94% 0 mm 0 W/m2
20:20 1.9 °C 1.1 °C 1023.9 hPa WSW 8 km/h 9.7 km/h 94% 0 mm 0 W/m2
20:30 1.8 °C 1 °C 1023.9 hPa SW 4.8 km/h 11.3 km/h 94% 0 mm 0 W/m2
20:40 1.8 °C 0.9 °C 1023.9 hPa SW 4.8 km/h 11.3 km/h 94% 0 mm 0 W/m2
20:50 1.8 °C 0.9 °C 1023.9 hPa SW 3.2 km/h 11.3 km/h 94% 0 mm 0 W/m2
21:00 1.7 °C 0.8 °C 1023.9 hPa SW 9.7 km/h 14.5 km/h 94% 0 mm 0 W/m2
21:10 1.6 °C 0.7 °C 1023.6 hPa SW 4.8 km/h 14.5 km/h 94% 0 mm 0 W/m2
21:20 1.6 °C 0.7 °C 1023.6 hPa SW 4.8 km/h 11.3 km/h 94% 0 mm 0 W/m2
21:30 1.6 °C 0.7 °C 1023.9 hPa SW 4.8 km/h 9.7 km/h 94% 0 mm 0 W/m2
21:40 1.5 °C 0.7 °C 1023.9 hPa WSW 4.8 km/h 9.7 km/h 94% 0 mm 0 W/m2
21:50 1.5 °C 0.7 °C 1023.9 hPa SW 4.8 km/h 11.3 km/h 94% 0 mm 0 W/m2
22:00 1.5 °C 0.7 °C 1023.9 hPa SW 1.6 km/h 8 km/h 94% 0 mm 0 W/m2
22:10 1.4 °C 0.6 °C 1024.3 hPa WSW 1.6 km/h 4.8 km/h 94% 0 mm 0 W/m2
22:20 1.4 °C 0.6 °C 1024.3 hPa WSW 8 km/h 11.3 km/h 94% 0 mm 0 W/m2
22:30 1.4 °C 0.6 °C 1024.3 hPa WSW 4.8 km/h 9.7 km/h 94% 0 mm 0 W/m2
22:40 1.4 °C 0.6 °C 1023.9 hPa SW 3.2 km/h 8 km/h 94% 0 mm 0 W/m2
22:50 1.4 °C 0.6 °C 1024.3 hPa SW 3.2 km/h 8 km/h 94% 0 mm 0 W/m2
23:00 1.4 °C 0.6 °C 1024.3 hPa SSW 1.6 km/h 6.4 km/h 94% 0 mm 0 W/m2
23:10 1.3 °C 0.4 °C 1024.3 hPa SSW 3.2 km/h 8 km/h 94% 0 mm 0 W/m2
23:20 1.3 °C 0.4 °C 1024.3 hPa WSW 3.2 km/h 6.4 km/h 94% 0 mm 0 W/m2
23:30 1.3 °C 0.4 °C 1024.3 hPa SW 3.2 km/h 6.4 km/h 94% 0 mm 0 W/m2
23:40 1.3 °C 0.4 °C 1024.3 hPa WSW 3.2 km/h 6.4 km/h 94% 0 mm 0 W/m2
23:50 1.2 °C 0.3 °C 1023.9 hPa SW 4.8 km/h 8 km/h 94% 0 mm 0 W/m2
Knjazevac, Serbia
Compliments of Weather Underground - 2 mb